Huvudsida
METAR-TAF:

METAR-TAF

Flygplatser :

Trollhättan-Vänersborgs flygplats

Trollhättan-Vänersborg, Sverige

latitud: 58-19N, longitud: 012-21E, höjd: 41 m

Aktuellt väderrapport

Denna rapport gjordes för 3 timmar och 40 minuter sedan, klockan 15:50 UTC
Vind 4 kt varierande vindriktning
Temperatur 25°C
Fuktighet 44%
Tryck 1017 hPa
Sikt 10 km eller mer
Inga moln under 1 500 m eller inga cumulonimbus

METAR: ESGT 251550Z VRB04KT CAVOK 25/12 Q1017

Tid: 21:30 (19:30 UTC)

Väderprognos

Denna rapport gjordes för 5 timmar och 0 minuter sedan, klockan 14:30 UTC
Prognos gäller från 25 kl. 15 UTC till 25 kl. 17 UTC
Vind 7 kt från väst
Sikt 10 km eller mer
Inga moln under 1 500 m eller inga cumulonimbus

TAF: ESGT 251430Z 2515/2517 26007KT CAVOK

Aktuella väderrapporter och prognoser från 4000 flygplatser (METAR- och TAF-rapporter).

De tillgängliga stationerna syns som gula och röda prickar på kartan.

För musen över prickarna för att se namnen på stationerna.

Klicka sedan för att få väderrapporter och prognoser.

För att ändra kartan: Klicka på de gröna knapparna med ett svart kors på för att zooma in; den gröna knappen med ett streck på för att zooma ut; eller på de gröna pilarna för angränsande kartor.


METAR-TAF: